Time;durP1;ratioP1;P1;durP2;ratioP2;P2;SDS_P1;SDS_P2;PMS_P1;PMS_P2;Temp;Humidity;BMP_temperature;BMP_pressure;BME280_temperature;BME280_humidity;BME280_pressure;Samples;Min_cycle;Max_cycle;Signal;HPM_P1;HPM_P2
2022/09/14 00:01:49;;;;;;;;;6.00;5.50;;;;;23.86;59.09;99971.06;5060710;27;45268;-55
2022/09/14 00:04:17;;;;;;;;;6.00;6.00;;;;;23.87;59.26;99975.44;5075942;27;70010;-55
2022/09/14 00:06:43;;;;;;;;;7.50;7.50;;;;;23.86;59.37;99971.06;5072388;27;45553;-56
2022/09/14 00:09:14;;;;;;;;;7.75;6.75;;;;;23.84;59.53;99962.38;5074308;27;45440;-55
2022/09/14 00:11:40;;;;;;;;;6.00;6.00;;;;;23.84;59.37;99957.84;5070801;27;45370;-52
2022/09/14 00:14:05;;;;;;;;;6.25;5.75;;;;;23.84;59.38;99963.19;5066093;27;45513;-54
2022/09/14 00:16:36;;;;;;;;;7.00;5.00;;;;;23.83;59.05;99950.84;5075464;27;46233;-51
2022/09/14 00:19:05;;;;;;;;;7.00;6.00;;;;;23.82;59.15;99942.97;5076038;27;45319;-55
2022/09/14 00:21:32;;;;;;;;;7.75;7.00;;;;;23.83;59.38;99948.19;5059644;28;45484;-53
2022/09/14 00:23:57;;;;;;;;;8.25;6.00;;;;;23.83;59.28;99941.97;5047502;28;45353;-54
2022/09/14 00:26:23;;;;;;;;;8.50;5.00;;;;;23.83;59.28;99923.25;5070476;27;74019;-55
2022/09/14 00:28:51;;;;;;;;;4.75;3.50;;;;;23.83;59.12;99926.78;5072398;27;45393;-55
2022/09/14 00:31:17;;;;;;;;;7.00;5.50;;;;;23.82;59.30;99930.44;5071953;27;45325;-52
2022/09/14 00:33:43;;;;;;;;;6.75;5.00;;;;;23.81;59.32;99927.91;5068450;27;45295;-53
2022/09/14 00:36:10;;;;;;;;;5.25;3.00;;;;;23.80;59.14;99919.06;5073438;27;46451;-53
2022/09/14 00:38:36;;;;;;;;;7.00;3.75;;;;;23.79;59.09;99909.31;5073799;27;45340;-53
2022/09/14 00:41:03;;;;;;;;;4.75;4.75;;;;;23.81;59.38;99911.88;5074717;27;45659;-53
2022/09/14 00:43:28;;;;;;;;;6.50;5.00;;;;;23.81;58.78;99903.88;5078790;27;45423;-55
2022/09/14 00:45:54;;;;;;;;;5.75;3.75;;;;;23.81;59.13;99898.53;5074035;27;45994;-54
2022/09/14 00:48:21;;;;;;;;;6.50;5.00;;;;;23.81;59.21;99890.50;5068356;27;45513;-54
2022/09/14 00:50:47;;;;;;;;;5.75;5.00;;;;;23.80;59.12;99886.16;5078826;28;45377;-54
2022/09/14 00:53:12;;;;;;;;;8.75;4.25;;;;;23.81;59.41;99898.53;5057596;28;67895;-55
2022/09/14 00:55:38;;;;;;;;;6.00;5.00;;;;;23.80;59.42;99891.47;5068372;27;46325;-54
2022/09/14 00:58:03;;;;;;;;;6.00;4.00;;;;;23.78;59.00;99886.28;5076059;27;45815;-54
2022/09/14 01:00:29;;;;;;;;;9.50;5.00;;;;;23.74;59.08;99874.19;5051371;27;45534;-53
2022/09/14 01:02:54;;;;;;;;;8.25;6.25;;;;;23.74;59.23;99873.34;5069595;27;45359;-54
2022/09/14 01:05:30;;;;;;;;;6.00;6.00;;;;;23.74;59.56;99878.69;5072110;27;48265;-53
2022/09/14 01:08:24;;;;;;;;;6.00;4.25;;;;;23.73;59.38;99866.31;5050508;28;45442;-53
2022/09/14 01:11:32;;;;;;;;;5.00;4.25;;;;;23.70;59.75;99854.13;5057154;28;45395;-53
2022/09/14 01:14:12;;;;;;;;;7.75;5.00;;;;;23.71;59.17;99853.13;5049984;28;45681;-53
2022/09/14 01:16:57;;;;;;;;;6.50;5.00;;;;;23.70;59.69;99854.94;5061094;27;45456;-52
2022/09/14 01:19:33;;;;;;;;;6.75;5.00;;;;;23.68;59.41;99842.75;5075274;27;45839;-53
2022/09/14 01:22:09;;;;;;;;;9.00;5.00;;;;;23.68;59.31;99842.75;5037342;27;45681;-54
2022/09/14 01:24:38;;;;;;;;;5.25;2.75;;;;;23.68;59.40;99848.91;5068552;27;45460;-52
2022/09/14 01:27:12;;;;;;;;;6.25;4.75;;;;;23.67;59.21;99847.25;5048480;28;47844;-54
2022/09/14 01:29:37;;;;;;;;;5.75;3.00;;;;;23.66;59.20;99842.88;5076532;27;45733;-52
2022/09/14 01:32:16;;;;;;;;;8.67;4.67;;;;;23.66;59.12;99837.53;5074950;27;45462;-54
2022/09/14 01:34:50;;;;;;;;;7.75;4.25;;;;;23.66;59.45;99845.56;5054705;28;45497;-55
2022/09/14 01:37:24;;;;;;;;;5.00;5.00;;;;;23.66;59.54;99840.22;5072621;27;45327;-53
2022/09/14 01:39:55;;;;;;;;;7.00;5.00;;;;;23.66;59.38;99836.72;5049840;27;46044;-54
2022/09/14 01:42:22;;;;;;;;;6.25;6.25;;;;;23.65;59.70;99843.84;5048055;27;45392;-52
2022/09/14 01:44:51;;;;;;;;;7.00;4.00;;;;;23.64;59.76;99842.19;5049943;28;45492;-55
2022/09/14 01:47:20;;;;;;;;;5.50;4.50;;;;;23.64;59.71;99839.53;5053955;28;45402;-57
2022/09/14 01:49:51;;;;;;;;;6.50;3.25;;;;;23.64;60.17;99842.19;5075068;27;45725;-56
2022/09/14 01:52:22;;;;;;;;;5.25;3.00;;;;;23.65;60.01;99838.50;5052575;28;45426;-57
2022/09/14 01:54:49;;;;;;;;;7.50;4.00;;;;;23.64;59.88;99854.72;5059153;28;45425;-57
2022/09/14 01:57:41;;;;;;;;;5.00;3.00;;;;;23.58;59.98;99847.28;5069673;27;46338;-58
2022/09/14 02:00:15;;;;;;;;;7.00;5.00;;;;;23.62;60.01;99845.97;5072647;27;45715;-57
2022/09/14 02:02:57;;;;;;;;;3.00;3.00;;;;;23.60;60.08;99842.63;5051689;28;45271;-56
2022/09/14 02:05:41;;;;;;;;;3.75;3.00;;;;;23.60;60.29;99839.94;5053783;28;46037;-56
2022/09/14 02:08:07;;;;;;;;;9.50;4.00;;;;;23.59;60.42;99832.94;5073539;27;47125;-55
2022/09/14 02:10:33;;;;;;;;;6.50;4.00;;;;;23.59;60.48;99824.94;5075647;27;45483;-56
2022/09/14 02:12:59;;;;;;;;;8.50;5.50;;;;;23.57;60.63;99834.91;5074655;27;45494;-56
2022/09/14 02:15:27;;;;;;;;;5.25;3.00;;;;;23.53;60.18;99823.66;5075783;27;68190;-56
2022/09/14 02:17:53;;;;;;;;;4.25;4.00;;;;;23.49;60.43;99833.81;5056112;28;46129;-56
2022/09/14 02:20:52;;;;;;;;;5.00;5.00;;;;;23.49;60.49;99836.47;5077798;27;45433;-57
2022/09/14 02:23:18;;;;;;;;;7.00;4.25;;;;;23.48;60.40;99831.31;5047701;28;45489;-58
2022/09/14 02:25:45;;;;;;;;;7.00;4.50;;;;;23.46;60.29;99838.59;5035039;28;45328;-57
2022/09/14 02:28:10;;;;;;;;;5.75;4.00;;;;;23.46;60.44;99851.97;5042458;28;45569;-57
2022/09/14 02:31:14;;;;;;;;;9.50;5.00;;;;;23.46;60.55;99854.63;5072355;27;61773;-56
2022/09/14 02:34:04;;;;;;;;;5.50;4.00;;;;;23.43;60.39;99853.09;5041414;27;45197;-57
2022/09/14 02:37:01;;;;;;;;;4.75;4.00;;;;;23.42;60.25;99847.91;5077153;27;45560;-57
2022/09/14 02:39:33;;;;;;;;;8.00;6.00;;;;;23.40;60.80;99853.38;5070080;27;46021;-56
2022/09/14 02:42:20;;;;;;;;;3.75;3.75;;;;;23.37;60.89;99845.66;5067727;27;45445;-57
2022/09/14 02:45:10;;;;;;;;;10.00;8.00;;;;;23.38;60.54;99850.03;5056007;28;45457;-57
2022/09/14 02:47:51;;;;;;;;;7.75;3.75;;;;;23.38;60.79;99860.72;5077140;27;45412;-57
2022/09/14 02:50:29;;;;;;;;;7.00;5.00;;;;;23.35;60.80;99847.63;5074460;27;47103;-58
2022/09/14 02:53:04;;;;;;;;;7.25;3.50;;;;;23.35;60.51;99850.31;5056900;28;45834;-57
2022/09/14 02:55:34;;;;;;;;;5.50;4.75;;;;;23.33;60.75;99844.28;5053460;28;45481;-57
2022/09/14 02:58:08;;;;;;;;;9.00;6.75;;;;;23.34;60.93;99845.09;5054681;28;45513;-57
2022/09/14 03:00:39;;;;;;;;;5.25;4.75;;;;;23.33;60.82;99844.28;5073444;27;45442;-57
2022/09/14 03:03:06;;;;;;;;;5.25;5.25;;;;;23.31;60.44;99847.09;5069168;27;45245;-57
2022/09/14 03:05:31;;;;;;;;;5.75;5.25;;;;;23.30;61.03;99855.25;5070148;28;45563;-57
2022/09/14 03:07:57;;;;;;;;;6.50;5.00;;;;;23.30;60.83;99849.91;5052043;28;45542;-57
2022/09/14 03:10:23;;;;;;;;;4.75;4.50;;;;;23.29;61.14;99848.22;5050013;28;45415;-57
2022/09/14 03:12:48;;;;;;;;;6.00;4.50;;;;;23.29;60.51;99854.41;5069951;27;45383;-56
2022/09/14 03:15:14;;;;;;;;;6.25;4.75;;;;;23.28;60.89;99851.88;5054372;27;53105;-57
2022/09/14 03:17:44;;;;;;;;;6.75;6.00;;;;;23.27;60.44;99843.03;5075427;27;45554;-58
2022/09/14 03:20:10;;;;;;;;;4.00;3.25;;;;;23.27;60.56;99848.38;5076603;27;46226;-57
2022/09/14 03:22:35;;;;;;;;;4.75;4.75;;;;;23.26;60.74;99846.69;5072008;27;45427;-57
2022/09/14 03:25:00;;;;;;;;;6.00;4.50;;;;;23.26;60.12;99848.53;5076496;27;55693;-57
2022/09/14 03:27:26;;;;;;;;;5.50;5.00;;;;;23.25;60.39;99841.50;5078947;27;45344;-56
2022/09/14 03:29:51;;;;;;;;;5.50;4.50;;;;;23.22;60.46;99841.78;5061199;27;45434;-56
2022/09/14 03:32:17;;;;;;;;;5.50;5.00;;;;;23.24;60.15;99848.66;5079486;27;52204;-55
2022/09/14 03:34:42;;;;;;;;;4.00;3.00;;;;;23.22;60.62;99853.31;5079815;27;54091;-55
2022/09/14 03:37:07;;;;;;;;;9.00;7.00;;;;;23.22;60.46;99850.63;5077899;28;50372;-56
2022/09/14 03:39:33;;;;;;;;;6.25;6.00;;;;;23.21;60.62;99840.09;5075466;27;46521;-56
2022/09/14 03:41:58;;;;;;;;;4.25;3.00;;;;;23.22;60.53;99836.47;5047058;28;45515;-56
2022/09/14 03:44:24;;;;;;;;;5.50;4.25;;;;;23.22;60.62;99820.44;5061685;28;45410;-58
2022/09/14 03:46:50;;;;;;;;;3.50;3.50;;;;;23.20;60.83;99820.59;5052842;28;45494;-57
2022/09/14 03:49:15;;;;;;;;;3.50;3.25;;;;;23.20;60.17;99817.91;5073016;27;65383;-58
2022/09/14 03:51:40;;;;;;;;;5.00;3.50;;;;;23.21;60.77;99830.25;5072564;27;45820;-57
2022/09/14 03:54:06;;;;;;;;;5.75;4.75;;;;;23.21;60.62;99824.09;5062278;27;46800;-57
2022/09/14 03:56:31;;;;;;;;;6.00;4.25;;;;;23.22;60.55;99828.44;5072371;28;45519;-57
2022/09/14 03:58:56;;;;;;;;;4.00;4.00;;;;;23.21;60.48;99837.44;5073133;27;73727;-57
2022/09/14 04:01:22;;;;;;;;;3.75;3.75;;;;;23.20;60.71;99849.13;5068708;28;67865;-58
2022/09/14 04:03:48;;;;;;;;;9.75;5.25;;;;;23.20;60.72;99847.28;5071677;28;45312;-57
2022/09/14 04:06:15;;;;;;;;;5.75;5.75;;;;;23.19;60.38;99845.59;5088057;27;45331;-58
2022/09/14 04:08:41;;;;;;;;;4.25;4.25;;;;;23.20;60.47;99841.09;5078317;27;47156;-58
2022/09/14 04:11:22;;;;;;;;;12.25;8.50;;;;;23.19;60.66;99823.41;5056321;27;45777;-58
2022/09/14 04:13:49;;;;;;;;;11.25;8.00;;;;;23.18;60.46;99816.34;5078080;27;45292;-57
2022/09/14 04:16:15;;;;;;;;;5.00;5.00;;;;;23.17;60.68;99823.53;5061943;28;45730;-58
2022/09/14 04:18:41;;;;;;;;;6.75;4.00;;;;;23.16;60.55;99827.22;5080205;27;45303;-59
2022/09/14 04:21:09;;;;;;;;;9.75;6.50;;;;;23.16;60.54;99816.53;5058426;27;45242;-58
2022/09/14 04:23:35;;;;;;;;;8.50;5.00;;;;;23.15;60.65;99814.84;5077969;27;45425;-59
2022/09/14 04:26:00;;;;;;;;;7.25;5.00;;;;;23.13;60.86;99819.47;5076991;27;45517;-57
2022/09/14 04:28:26;;;;;;;;;7.00;5.00;;;;;23.10;60.58;99804.59;5072164;28;62314;-57
2022/09/14 04:30:59;;;;;;;;;5.50;5.50;;;;;23.10;60.60;99822.44;5061620;28;45322;-58
2022/09/14 04:33:25;;;;;;;;;7.50;4.25;;;;;23.08;60.91;99816.41;5056675;28;45481;-58
2022/09/14 04:36:15;;;;;;;;;9.50;5.00;;;;;23.04;60.47;99806.97;5056021;28;45757;-58
2022/09/14 04:38:41;;;;;;;;;8.00;5.75;;;;;23.05;60.98;99806.00;5059258;27;46011;-57
2022/09/14 04:41:09;;;;;;;;;7.25;7.25;;;;;23.05;60.74;99798.84;5056420;28;45280;-57
2022/09/14 04:43:35;;;;;;;;;6.25;5.50;;;;;23.03;61.04;99802.63;5072679;27;45222;-57
2022/09/14 04:46:02;;;;;;;;;5.75;4.00;;;;;23.01;60.94;99801.94;5058247;27;45413;-57
2022/09/14 04:48:32;;;;;;;;;5.00;5.00;;;;;23.00;60.56;99802.91;5060135;27;45444;-58
2022/09/14 04:51:09;;;;;;;;;4.00;4.00;;;;;22.99;60.66;99817.25;5055950;27;45872;-58
2022/09/14 04:53:37;;;;;;;;;3.75;3.75;;;;;22.97;60.34;99813.88;5067953;27;45471;-57
2022/09/14 04:56:05;;;;;;;;;5.00;3.25;;;;;22.97;60.71;99816.56;5077092;27;45509;-57
2022/09/14 04:58:31;;;;;;;;;5.25;3.00;;;;;22.94;60.39;99807.00;5076639;27;46380;-57
2022/09/14 05:01:17;;;;;;;;;3.75;3.00;;;;;22.92;61.10;99808.97;5075851;27;45422;-58
2022/09/14 05:03:42;;;;;;;;;5.75;5.00;;;;;22.88;60.73;99807.59;5053918;28;45493;-58
2022/09/14 05:06:19;;;;;;;;;5.00;3.75;;;;;22.85;60.99;99795.34;5076746;27;45158;-58
2022/09/14 05:08:45;;;;;;;;;4.25;4.00;;;;;22.85;61.23;99799.84;5050556;28;46181;-58
2022/09/14 05:11:14;;;;;;;;;4.00;3.50;;;;;22.85;60.72;99806.03;5075917;28;45731;-57
2022/09/14 05:13:39;;;;;;;;;5.00;5.00;;;;;22.85;60.64;99803.34;5070119;27;45324;-57
2022/09/14 05:16:10;;;;;;;;;6.00;3.50;;;;;22.84;61.00;99792.81;5068945;27;45494;-57
2022/09/14 05:18:35;;;;;;;;;4.25;4.00;;;;;22.84;60.74;99788.34;5081251;27;46298;-57
2022/09/14 05:21:03;;;;;;;;;3.50;3.00;;;;;22.84;60.73;99785.69;5072939;27;45292;-55
2022/09/14 05:23:28;;;;;;;;;5.00;3.00;;;;;22.84;60.90;99771.50;5073704;27;45518;-55
2022/09/14 05:25:54;;;;;;;;;4.00;4.00;;;;;22.84;60.80;99775.03;5068100;27;70337;-55
2022/09/14 05:28:19;;;;;;;;;6.50;4.00;;;;;22.85;60.88;99773.19;5076527;27;45557;-56
2022/09/14 05:30:44;;;;;;;;;5.00;3.50;;;;;22.85;60.96;99776.69;5077062;27;45712;-55
2022/09/14 05:33:10;;;;;;;;;5.25;3.50;;;;;22.83;61.24;99769.81;5067619;27;69250;-55
2022/09/14 05:35:35;;;;;;;;;5.00;4.25;;;;;22.84;60.89;99771.50;5076018;27;71203;-55
2022/09/14 05:38:00;;;;;;;;;5.25;4.00;;;;;22.84;60.70;99764.34;5073596;27;57313;-55
2022/09/14 05:40:26;;;;;;;;;7.50;5.00;;;;;22.84;61.02;99761.69;5075004;27;49751;-55
2022/09/14 05:42:51;;;;;;;;;7.00;4.00;;;;;22.84;61.14;99767.00;5076741;27;45739;-57
2022/09/14 05:45:16;;;;;;;;;6.50;5.00;;;;;22.85;61.24;99766.00;5073910;27;62630;-58
2022/09/14 05:47:42;;;;;;;;;2.00;2.00;;;;;22.86;61.28;99765.03;5072436;27;70420;-58
2022/09/14 05:50:07;;;;;;;;;7.00;4.75;;;;;22.86;61.08;99774.84;5068076;27;45546;-57
2022/09/14 05:52:33;;;;;;;;;6.00;4.50;;;;;22.86;61.32;99777.50;5053645;28;45222;-56
2022/09/14 05:54:58;;;;;;;;;4.25;4.25;;;;;22.86;60.74;99781.03;5069949;27;70237;-59
2022/09/14 05:57:23;;;;;;;;;10.75;5.50;;;;;22.86;61.35;99786.38;5068484;28;66032;-59
2022/09/14 05:59:49;;;;;;;;;6.00;5.00;;;;;22.88;61.27;99784.41;5078225;28;73257;-57
2022/09/14 06:02:14;;;;;;;;;7.75;5.00;;;;;22.89;61.16;99786.06;5058207;28;65686;-58
2022/09/14 06:04:40;;;;;;;;;5.25;4.00;;;;;22.91;61.07;99801.94;5069713;27;73353;-59
2022/09/14 06:07:05;;;;;;;;;6.50;4.25;;;;;22.93;60.98;99797.31;5082129;27;46898;-58
2022/09/14 06:09:30;;;;;;;;;7.75;5.75;;;;;22.95;61.14;99800.69;5054787;27;69925;-59
2022/09/14 06:11:55;;;;;;;;;8.75;5.75;;;;;22.97;61.14;99800.53;5061595;27;45240;-58
2022/09/14 06:14:21;;;;;;;;;11.00;8.00;;;;;22.97;61.40;99804.03;5067441;27;71268;-59
2022/09/14 06:16:46;;;;;;;;;25.75;19.00;;;;;22.98;61.40;99797.69;5069131;27;72587;-58
2022/09/14 06:19:14;;;;;;;;;12.00;11.25;;;;;22.99;60.86;99796.72;5068418;27;45446;-58
2022/09/14 06:21:39;;;;;;;;;12.75;10.00;;;;;22.99;61.51;99802.06;5070120;27;45679;-59
2022/09/14 06:24:05;;;;;;;;;15.25;11.50;;;;;23.01;61.41;99794.75;5073604;27;45461;-57
2022/09/14 06:26:31;;;;;;;;;11.25;7.00;;;;;23.02;61.36;99793.78;5052372;28;46318;-58
2022/09/14 06:28:56;;;;;;;;;24.00;13.25;;;;;23.02;61.25;99791.13;5078617;28;45253;-58
2022/09/14 06:31:23;;;;;;;;;11.00;8.50;;;;;23.02;61.28;99799.13;5066891;27;45493;-58
2022/09/14 06:33:51;;;;;;;;;9.50;9.00;;;;;23.01;61.10;99802.75;5070308;27;46222;-59
2022/09/14 06:36:23;;;;;;;;;17.50;9.00;;;;;;;;5074355;28;46387;-60
2022/09/14 06:38:49;;;;;;;;;12.25;8.75;;;;;23.05;60.86;99811.34;5070981;28;45523;-60
2022/09/14 06:41:17;;;;;;;;;7.50;6.00;;;;;23.05;61.33;99822.03;5070292;28;45469;-59
2022/09/14 06:43:43;;;;;;;;;9.25;8.00;;;;;23.05;61.97;99811.34;5066824;27;45493;-58
2022/09/14 06:46:12;;;;;;;;;11.75;7.75;;;;;23.05;62.01;99798.84;5070324;27;45420;-58
2022/09/14 06:48:44;;;;;;;;;8.50;7.00;;;;;23.05;62.17;99790.00;5072340;28;45589;-59
2022/09/14 06:51:11;;;;;;;;;10.50;8.00;;;;;23.02;62.38;99791.13;5079115;28;45373;-59
2022/09/14 06:53:36;;;;;;;;;11.00;8.00;;;;;23.01;62.03;99805.44;5057687;28;45355;-51
2022/09/14 06:56:02;;;;;;;;;9.00;9.00;;;;;23.01;62.37;99812.59;5059521;28;73742;-49
2022/09/14 06:58:27;;;;;;;;;6.50;3.75;;;;;23.00;62.73;99803.75;5075715;28;67725;-49
2022/09/14 07:00:52;;;;;;;;;10.75;8.75;;;;;23.00;62.68;99810.91;5077207;28;62952;-49
2022/09/14 07:03:18;;;;;;;;;7.00;5.00;;;;;22.98;62.92;99813.72;5069521;28;66525;-49
2022/09/14 07:05:43;;;;;;;;;9.50;6.75;;;;;22.97;62.69;99812.06;5074312;28;71674;-50
2022/09/14 07:08:08;;;;;;;;;7.75;7.75;;;;;22.98;63.33;99813.72;5079816;28;67339;-54
2022/09/14 07:10:34;;;;;;;;;10.75;7.75;;;;;22.98;63.12;99811.03;5082686;28;66306;-54
2022/09/14 07:12:59;;;;;;;;;8.25;8.25;;;;;23.01;62.84;99810.75;5076905;28;70599;-54
2022/09/14 07:15:24;;;;;;;;;11.75;9.00;;;;;23.05;63.16;99798.84;5065863;28;47912;-54
2022/09/14 07:17:50;;;;;;;;;13.00;9.00;;;;;23.08;63.55;99800.41;5080192;28;45415;-51
2022/09/14 07:20:15;;;;;;;;;10.50;9.00;;;;;23.10;62.92;99815.25;5061608;28;57118;-52
2022/09/14 07:22:41;;;;;;;;;16.25;10.00;;;;;23.15;63.22;99812.16;5084165;28;62349;-52
2022/09/14 07:25:07;;;;;;;;;29.75;17.00;;;;;23.17;63.55;99809.34;5084593;28;46343;-53
2022/09/14 07:27:33;;;;;;;;;14.75;9.50;;;;;23.19;63.03;99805.53;5057111;28;45328;-52
2022/09/14 07:29:58;;;;;;;;;22.75;10.50;;;;;23.21;62.70;99808.06;5085458;28;45469;-52
2022/09/14 07:32:24;;;;;;;;;27.75;12.50;;;;;23.23;63.00;99808.75;5084909;28;64839;-50
2022/09/14 07:34:49;;;;;;;;;18.75;10.75;;;;;23.26;62.80;99819.16;5075601;28;50051;-53
2022/09/14 07:37:14;;;;;;;;;15.50;10.00;;;;;23.28;63.02;99820.72;5074668;28;68250;-53
2022/09/14 07:39:40;;;;;;;;;10.50;7.25;;;;;23.31;62.66;99820.41;5093890;27;45180;-52
2022/09/14 07:42:05;;;;;;;;;15.00;8.00;;;;;23.36;63.01;99821.81;5057330;28;45451;-53
2022/09/14 07:44:31;;;;;;;;;7.75;7.75;;;;;23.40;62.07;99828.53;5085415;28;46106;-54
2022/09/14 07:46:56;;;;;;;;;11.00;9.25;;;;;23.42;62.38;99832.72;5074572;28;70983;-51
2022/09/14 07:49:21;;;;;;;;;11.75;7.75;;;;;23.45;62.22;99828.94;5056370;28;45424;-54
2022/09/14 07:51:47;;;;;;;;;9.25;5.50;;;;;23.46;62.14;99827.91;5050658;28;55404;-52
2022/09/14 07:54:16;;;;;;;;;4.25;4.00;;;;;23.48;61.75;99834.81;5066594;28;46838;-50
2022/09/14 07:56:42;;;;;;;;;7.75;6.75;;;;;23.50;62.02;99837.34;5049653;28;45851;-52
2022/09/14 07:59:09;;;;;;;;;9.25;6.75;;;;;23.53;61.68;99841.53;5068792;28;45482;-49
2022/09/14 08:01:35;;;;;;;;;10.00;6.25;;;;;23.57;61.68;99840.25;5077654;28;45304;-51
2022/09/14 08:04:01;;;;;;;;;6.75;6.75;;;;;23.59;61.64;99832.94;5074568;28;45308;-51
2022/09/14 08:06:27;;;;;;;;;6.75;6.50;;;;;23.65;61.63;99840.34;5084999;28;45291;-52
2022/09/14 08:08:54;;;;;;;;;10.00;9.50;;;;;23.70;61.92;99848.78;5084924;28;45314;-53
2022/09/14 08:11:30;;;;;;;;;10.50;8.00;;;;;23.74;61.61;99855.50;5055948;28;45411;-53
2022/09/14 08:14:02;;;;;;;;;10.75;8.00;;;;;23.77;61.67;99860.53;5059508;28;46127;-51
2022/09/14 08:16:29;;;;;;;;;9.25;8.00;;;;;23.81;61.34;99871.81;5058178;27;45450;-53
2022/09/14 08:18:57;;;;;;;;;8.50;7.00;;;;;23.84;61.28;99867.00;5063576;28;45408;-52
2022/09/14 08:21:23;;;;;;;;;11.50;8.25;;;;;23.89;61.58;99871.91;5053960;28;45436;-52
2022/09/14 08:23:49;;;;;;;;;15.25;11.75;;;;;23.92;61.27;99868.97;5080745;28;46287;-50
2022/09/14 08:26:20;;;;;;;;;9.75;8.25;;;;;23.94;61.08;99880.34;5060497;27;45299;-54
2022/09/14 08:28:46;;;;;;;;;9.25;8.25;;;;;23.97;61.10;99888.03;5080756;27;45252;-53
2022/09/14 08:31:11;;;;;;;;;9.50;7.00;;;;;23.99;60.95;99887.88;5059999;28;45588;-49
2022/09/14 08:33:39;;;;;;;;;9.00;9.00;;;;;24.01;61.00;99881.41;5077637;27;45512;-52
2022/09/14 08:36:06;;;;;;;;;14.50;10.00;;;;;24.04;61.02;99886.44;5058104;28;45826;-52
2022/09/14 08:38:31;;;;;;;;;8.50;7.50;;;;;24.06;60.44;99894.31;5076554;28;45421;-52
2022/09/14 08:41:16;;;;;;;;;13.75;9.00;;;;;24.09;60.63;99899.38;5059073;27;45317;-48
2022/09/14 08:43:41;;;;;;;;;13.50;9.75;;;;;24.11;60.65;99902.72;5062671;28;46824;-50
2022/09/14 08:46:13;;;;;;;;;8.50;6.75;;;;;24.14;60.16;99894.41;5073610;27;67358;-50
2022/09/14 08:48:46;;;;;;;;;12.50;6.25;;;;;24.14;60.40;99899.75;5058529;28;45526;-53
2022/09/14 08:51:11;;;;;;;;;8.75;7.00;;;;;24.13;60.36;99900.75;5045074;28;45516;-52
2022/09/14 08:53:39;;;;;;;;;10.50;7.75;;;;;24.14;60.21;99891.75;5075609;27;69649;-49
2022/09/14 08:56:18;;;;;;;;;12.75;10.25;;;;;24.16;60.21;99894.28;5080042;27;45780;-51
2022/09/14 08:58:49;;;;;;;;;11.25;9.25;;;;;24.19;60.17;99902.00;5050970;28;45229;-51
2022/09/14 09:01:30;;;;;;;;;10.50;9.00;;;;;24.21;60.19;99902.69;5073059;27;45244;-51
2022/09/14 09:04:23;;;;;;;;;11.25;8.00;;;;;24.21;60.26;99903.53;5078928;27;46314;-51
2022/09/14 09:06:54;;;;;;;;;10.25;9.50;;;;;24.24;60.38;99905.03;5068670;28;45427;-52
2022/09/14 09:09:37;;;;;;;;;7.75;7.50;;;;;24.25;59.91;99906.72;5068507;27;45306;-48
2022/09/14 09:12:04;;;;;;;;;16.25;10.25;;;;;24.28;59.80;99895.75;5083088;27;45348;-51
2022/09/14 09:14:33;;;;;;;;;14.00;11.00;;;;;24.30;59.98;99899.09;5090330;27;45372;-51
2022/09/14 09:17:03;;;;;;;;;11.00;8.00;;;;;24.31;60.13;99903.47;5050243;27;45609;-51
2022/09/14 09:19:43;;;;;;;;;8.50;7.25;;;;;24.33;59.89;99895.28;5080763;27;45343;-52
2022/09/14 09:22:13;;;;;;;;;10.50;8.50;;;;;24.35;59.74;99899.50;5054861;28;45368;-49
2022/09/14 09:24:40;;;;;;;;;9.00;6.50;;;;;24.37;59.27;99899.34;5073657;28;45435;-52
2022/09/14 09:27:10;;;;;;;;;8.75;8.75;;;;;24.39;59.52;99902.72;5061841;28;45465;-50
2022/09/14 09:29:36;;;;;;;;;7.00;7.00;;;;;24.41;59.16;99892.69;5076385;27;45444;-50
2022/09/14 09:32:03;;;;;;;;;8.00;7.25;;;;;24.43;59.53;99899.59;5060787;28;45404;-49
2022/09/14 09:34:29;;;;;;;;;8.75;8.00;;;;;24.48;59.40;99903.63;5050739;28;46506;-49
2022/09/14 09:36:54;;;;;;;;;46.00;35.75;;;;;24.48;59.32;99891.09;5075177;27;46481;-51
2022/09/14 09:39:22;;;;;;;;;11.50;10.00;;;;;24.51;59.10;99896.16;5080038;27;45167;-49
2022/09/14 09:41:57;;;;;;;;;7.75;7.50;;;;;24.54;58.88;99898.56;5070482;27;45230;-49
2022/09/14 09:44:23;;;;;;;;;58.75;44.50;;;;;24.57;58.96;99892.88;5044371;28;47181;-49
2022/09/14 09:46:59;;;;;;;;;37.00;22.50;;;;;24.60;58.56;99902.44;5080575;27;45272;-50
2022/09/14 09:49:29;;;;;;;;;25.25;22.00;;;;;24.63;58.51;99902.16;5062143;28;45423;-52
2022/09/14 09:51:56;;;;;;;;;24.00;18.50;;;;;24.66;58.64;99903.66;5089868;27;45270;-48
2022/09/14 09:54:24;;;;;;;;;8.75;5.50;;;;;24.67;58.20;99906.19;5060522;28;46379;-49
2022/09/14 09:56:52;;;;;;;;;11.75;10.00;;;;;24.69;58.11;99909.56;5072375;28;45482;-52
2022/09/14 09:59:31;;;;;;;;;11.75;7.25;;;;;24.75;58.11;99900.06;5080131;28;45354;-49
2022/09/14 10:02:27;;;;;;;;;14.25;11.50;;;;;24.79;58.00;99893.44;5075750;28;45253;-49
2022/09/14 10:05:07;;;;;;;;;8.75;8.75;;;;;24.82;57.85;99882.41;5061528;28;46523;-49
2022/09/14 10:07:36;;;;;;;;;13.25;10.50;;;;;24.85;57.53;99898.16;5061135;28;45671;-49
2022/09/14 10:10:09;;;;;;;;;3.00;3.00;;;;;24.86;55.26;99889.16;5072155;28;45336;-50
2022/09/14 10:12:36;;;;;;;;;5.00;4.00;;;;;24.85;55.30;99881.25;5067245;28;45512;-50
2022/09/14 10:15:21;;;;;;;;;8.25;6.00;;;;;24.88;55.35;99884.47;5067644;28;45307;-48
2022/09/14 10:17:59;;;;;;;;;8.00;6.00;;;;;24.93;54.84;99881.31;5071693;27;45613;-48
2022/09/14 10:20:25;;;;;;;;;9.00;3.50;;;;;24.96;54.23;99872.97;5091410;27;45424;-51
2022/09/14 10:22:50;;;;;;;;;8.00;6.25;;;;;24.98;54.40;99868.31;5072289;27;62858;-48
2022/09/14 10:25:22;;;;;;;;;6.50;4.00;;;;;25.04;54.12;99866.81;5076040;27;46864;-49
2022/09/14 10:27:49;;;;;;;;;7.75;6.75;;;;;25.08;54.51;99870.91;5069270;28;45348;-49
2022/09/14 10:30:17;;;;;;;;;6.00;3.50;;;;;25.10;54.27;99863.53;5072922;28;45483;-51
2022/09/14 10:32:55;;;;;;;;;8.75;5.50;;;;;25.13;53.63;99864.06;5050530;28;45343;-51
2022/09/14 10:35:22;;;;;;;;;3.50;2.75;;;;;25.18;52.33;99863.59;5071173;27;45296;-53
2022/09/14 10:38:00;;;;;;;;;9.75;6.00;;;;;25.23;53.80;99852.41;5054414;28;45495;-51
2022/09/14 10:40:42;;;;;;;;;11.00;9.00;;;;;25.24;53.07;99844.22;5073120;27;45450;-50
2022/09/14 10:43:44;;;;;;;;;2.75;2.75;;;;;25.25;52.89;99851.31;5047729;28;45317;-52
2022/09/14 10:46:12;;;;;;;;;4.00;3.75;;;;;25.28;52.38;99840.25;5058376;27;46525;-48
2022/09/14 10:49:11;;;;;;;;;3.75;3.75;;;;;25.31;52.43;99847.16;5057297;28;45653;-52
2022/09/14 10:51:48;;;;;;;;;6.50;3.00;;;;;25.32;52.14;99836.28;5038451;28;45391;-50
2022/09/14 10:54:36;;;;;;;;;2.00;2.00;;;;;25.34;51.87;99828.91;5056459;27;45400;-47
2022/09/14 10:57:20;;;;;;;;;4.00;2.25;;;;;25.34;51.51;99831.59;5073185;28;45753;-48
2022/09/14 10:59:53;;;;;;;;;1.75;1.75;;;;;25.37;51.92;99833.09;5055363;27;45409;-52
2022/09/14 11:02:53;;;;;;;;;3.25;3.25;;;;;25.41;51.92;99828.25;5047670;28;45377;-49
2022/09/14 11:05:38;;;;;;;;;16.25;5.75;;;;;25.47;51.28;99827.63;4995023;28;45361;-51
2022/09/14 11:08:22;;;;;;;;;9.00;5.00;;;;;25.54;51.48;99821.47;5036247;28;46286;-52
2022/09/14 11:10:56;;;;;;;;;7.75;4.00;;;;;25.63;51.20;99819.66;5077503;27;45729;-50
2022/09/14 11:13:37;;;;;;;;;13.25;7.50;;;;;25.71;51.28;99818.84;5060935;28;45271;-50
2022/09/14 11:16:08;;;;;;;;;4.50;3.00;;;;;25.76;50.99;99817.38;5073607;27;45438;-49
2022/09/14 11:19:13;;;;;;;;;5.25;3.75;;;;;25.82;50.58;99815.06;5071673;28;45269;-49
2022/09/14 11:21:44;;;;;;;;;5.25;4.00;;;;;25.87;50.67;99823.41;5078144;27;45803;-51
2022/09/14 11:24:36;;;;;;;;;3.75;3.75;;;;;25.92;50.72;99821.94;5072945;27;45376;-50
2022/09/14 11:27:14;;;;;;;;;5.75;3.50;;;;;25.94;50.48;99819.13;5064886;27;45254;-51
2022/09/14 11:29:45;;;;;;;;;2.00;2.00;;;;;25.99;49.76;99824.81;5051705;27;45443;-51
2022/09/14 11:32:22;;;;;;;;;2.25;2.00;;;;;26.03;50.46;99825.34;5051045;28;45587;-52
2022/09/14 11:34:56;;;;;;;;;4.00;2.00;;;;;26.05;50.26;99821.50;5054929;28;45360;-51
2022/09/14 11:37:42;;;;;;;;;6.00;3.00;;;;;26.11;49.86;99825.38;5048106;28;45427;-51
2022/09/14 11:40:15;;;;;;;;;1.50;1.00;;;;;26.17;49.59;99826.53;5052831;28;45479;-47
2022/09/14 11:42:51;;;;;;;;;5.25;5.25;;;;;26.22;49.60;99825.03;5068220;28;45344;-52
2022/09/14 11:45:25;;;;;;;;;8.75;7.50;;;;;26.27;49.58;99821.88;5047224;28;45444;-50
2022/09/14 11:48:23;;;;;;;;;6.00;4.00;;;;;26.36;50.01;99828.91;5056353;28;45450;-53